Time;durP1;ratioP1;P1;durP2;ratioP2;P2;SDS_P1;SDS_P2;PMS_P1;PMS_P2;Temp;Humidity;BMP_temperature;BMP_pressure;BME280_temperature;BME280_humidity;BME280_pressure;Samples;Min_cycle;Max_cycle;Signal;HPM_P1;HPM_P2
2021/06/13 00:01:42;;;;;;;7.05;4.53;;;22.90;53.80;;;;;;10414027;28;20029;-55
2021/06/13 00:06:42;;;;;;;8.95;4.78;;;22.90;53.80;;;;;;10413993;28;20026;-54
2021/06/13 00:11:43;;;;;;;6.88;4.65;;;22.90;53.60;;;;;;10413680;28;20105;-55
2021/06/13 00:16:44;;;;;;;5.32;4.30;;;22.90;53.60;;;;;;10414101;28;20065;-55
2021/06/13 00:21:46;;;;;;;6.45;4.38;;;22.90;53.60;;;;;;10412981;28;20465;-55
2021/06/13 00:26:46;;;;;;;6.35;4.50;;;22.90;53.60;;;;;;10413530;28;20079;-55
2021/06/13 00:31:49;;;;;;;5.43;4.45;;;22.80;53.50;;;;;;10413386;28;20600;-54
2021/06/13 00:36:51;;;;;;;6.60;4.20;;;22.80;53.50;;;;;;10414464;28;20059;-55
2021/06/13 00:41:52;;;;;;;6.53;4.78;;;22.80;54.20;;;;;;10429556;28;20033;-55
2021/06/13 00:46:53;;;;;;;7.93;4.82;;;22.80;53.50;;;;;;10420798;28;20128;-55
2021/06/13 00:51:53;;;;;;;6.25;4.45;;;22.80;53.30;;;;;;10420478;28;20077;-54
2021/06/13 00:56:55;;;;;;;7.88;4.38;;;22.80;53.40;;;;;;10419092;28;20060;-53
2021/06/13 01:01:56;;;;;;;8.80;5.10;;;22.80;53.30;;;;;;10420555;28;20121;-55
2021/06/13 01:07:20;;;;;;;4.53;3.63;;;22.80;53.30;;;;;;10420048;28;20031;-55
2021/06/13 01:12:37;;;;;;;6.93;4.95;;;22.80;53.40;;;;;;10406904;28;20164;-55
2021/06/13 01:17:46;;;;;;;7.43;4.35;;;22.80;53.40;;;;;;10419373;28;20041;-55
2021/06/13 01:23:03;;;;;;;5.70;4.18;;;22.70;53.40;;;;;;10418435;28;20110;-55
2021/06/13 01:28:41;;;;;;;7.05;5.00;;;22.70;53.30;;;;;;10417680;28;20037;-54
2021/06/13 01:33:43;;;;;;;7.20;4.68;;;22.70;53.30;;;;;;10418615;28;20029;-55
2021/06/13 01:38:46;;;;;;;7.38;4.50;;;22.70;53.30;;;;;;10417504;28;20102;-55
2021/06/13 01:43:48;;;;;;;6.95;4.45;;;22.70;53.20;;;;;;10428260;28;20049;-55
2021/06/13 01:48:49;;;;;;;8.27;4.82;;;22.70;53.30;;;;;;10416875;28;20037;-53
2021/06/13 01:53:51;;;;;;;7.43;4.90;;;22.70;53.20;;;;;;10417365;28;20110;-54
2021/06/13 01:58:55;;;;;;;5.20;3.95;;;22.70;53.30;;;;;;10418055;28;20053;-55
2021/06/13 02:04:00;;;;;;;6.63;4.70;;;22.70;53.30;;;;;;10416751;28;20033;-53
2021/06/13 02:09:04;;;;;;;7.40;4.40;;;22.60;53.20;;;;;;10416557;28;20489;-54
2021/06/13 02:14:05;;;;;;;5.78;4.65;;;22.60;53.20;;;;;;10404301;28;20025;-55
2021/06/13 02:19:06;;;;;;;6.20;4.50;;;22.60;53.10;;;;;;10417241;28;20040;-55
2021/06/13 02:24:08;;;;;;;6.13;4.50;;;22.60;53.00;;;;;;10415791;28;20117;-55
2021/06/13 02:29:11;;;;;;;7.72;4.07;;;22.60;53.00;;;;;;10415719;28;20029;-55
2021/06/13 02:34:21;;;;;;;5.10;3.95;;;22.60;53.00;;;;;;10415789;28;20021;-54
2021/06/13 02:39:23;;;;;;;6.38;4.57;;;22.60;53.00;;;;;;10416063;28;20044;-54
2021/06/13 02:44:24;;;;;;;5.38;4.00;;;22.60;52.90;;;;;;10425297;28;20077;-55
2021/06/13 02:49:25;;;;;;;8.88;4.55;;;22.60;52.90;;;;;;10416268;28;20042;-55
2021/06/13 02:54:27;;;;;;;6.10;4.72;;;22.50;52.70;;;;;;10414773;28;20108;-55
2021/06/13 02:59:36;;;;;;;4.93;3.80;;;22.50;52.80;;;;;;10414001;28;20034;-55
2021/06/13 03:04:40;;;;;;;5.97;4.05;;;22.50;52.70;;;;;;10414495;28;20076;-54
2021/06/13 03:09:42;;;;;;;6.25;4.30;;;22.50;52.70;;;;;;10403549;28;20450;-55
2021/06/13 03:14:43;;;;;;;5.43;4.45;;;22.50;52.70;;;;;;10402805;28;20065;-55
2021/06/13 03:19:47;;;;;;;5.50;3.83;;;22.50;52.70;;;;;;10413555;28;20057;-55
2021/06/13 03:24:51;;;;;;;6.75;4.25;;;22.50;52.60;;;;;;10414119;28;20405;-54
2021/06/13 03:29:52;;;;;;;5.57;4.60;;;22.50;52.70;;;;;;10413846;28;20037;-53
2021/06/13 03:34:54;;;;;;;7.13;4.55;;;22.40;52.60;;;;;;10413691;28;20018;-54
2021/06/13 03:39:56;;;;;;;6.03;3.97;;;22.40;52.50;;;;;;10413054;28;20034;-55
2021/06/13 03:44:58;;;;;;;8.45;5.03;;;22.40;52.50;;;;;;10422757;28;20131;-54
2021/06/13 03:49:59;;;;;;;7.10;4.72;;;22.40;52.50;;;;;;10412852;28;20034;-55
2021/06/13 03:55:00;;;;;;;6.53;4.15;;;22.40;52.60;;;;;;10413281;28;20421;-54
2021/06/13 04:00:02;;;;;;;5.80;3.90;;;22.30;52.50;;;;;;10411821;28;20041;-54
2021/06/13 04:05:03;;;;;;;6.78;4.55;;;22.30;52.50;;;;;;10413460;28;20033;-54
2021/06/13 04:10:04;;;;;;;7.05;4.63;;;22.30;52.40;;;;;;10410767;28;20037;-54
2021/06/13 04:15:06;;;;;;;8.57;4.78;;;22.30;52.50;;;;;;10418555;28;20025;-55
2021/06/13 04:20:11;;;;;;;6.18;4.45;;;22.30;52.40;;;;;;10419837;28;20584;-56
2021/06/13 04:25:14;;;;;;;6.75;5.38;;;22.30;52.40;;;;;;10421021;28;20041;-55
2021/06/13 04:30:15;;;;;;;6.70;4.50;;;22.40;52.50;;;;;;10420912;28;20030;-55
2021/06/13 04:35:17;;;;;;;7.45;4.90;;;22.30;52.40;;;;;;10420750;28;20017;-55
2021/06/13 04:40:18;;;;;;;5.90;4.95;;;22.30;52.50;;;;;;10419898;28;20112;-53
2021/06/13 04:45:18;;;;;;;5.90;4.20;;;22.30;52.50;;;;;;10420951;28;20050;-54
2021/06/13 04:50:20;;;;;;;5.88;3.97;;;22.30;52.60;;;;;;10419013;28;20098;-55
2021/06/13 04:55:46;;;;;;;5.70;4.72;;;22.30;52.60;;;;;;10419647;28;20037;-54
2021/06/13 05:00:47;;;;;;;5.90;4.82;;;22.20;52.60;;;;;;10402660;28;20025;-55
2021/06/13 05:05:47;;;;;;;6.10;4.18;;;22.20;52.70;;;;;;10420134;28;20064;-54
2021/06/13 05:10:48;;;;;;;8.80;4.75;;;22.20;53.30;;;;;;10408657;28;20030;-53
2021/06/13 05:15:49;;;;;;;10.32;4.95;;;22.20;54.10;;;;;;10418162;28;20616;-54
2021/06/13 05:20:53;;;;;;;10.32;4.30;;;22.30;54.80;;;;;;10418603;28;20041;-52
2021/06/13 05:25:56;;;;;;;7.10;4.13;;;22.30;54.90;;;;;;10418539;28;20062;-54
2021/06/13 05:30:57;;;;;;;9.13;4.05;;;22.30;55.00;;;;;;10419278;28;20045;-54
2021/06/13 05:36:01;;;;;;;9.73;4.20;;;22.30;55.60;;;;;;10419033;28;20429;-53
2021/06/13 05:41:01;;;;;;;10.63;4.90;;;22.30;55.90;;;;;;10413982;28;20452;-55
2021/06/13 05:46:03;;;;;;;10.50;5.38;;;22.30;56.00;;;;;;10424451;28;20057;-55
2021/06/13 05:51:05;;;;;;;11.10;4.70;;;22.30;56.40;;;;;;10418405;28;20112;-54
2021/06/13 05:56:06;;;;;;;6.63;4.57;;;22.30;56.00;;;;;;10418199;28;20026;-51
2021/06/13 06:01:06;;;;;;;12.88;5.07;;;22.30;56.30;;;;;;10417480;28;20025;-55
2021/06/13 06:06:07;;;;;;;13.40;5.55;;;22.30;55.90;;;;;;10387091;28;20100;-55
2021/06/13 06:11:09;;;;;;;14.32;4.70;;;22.30;57.60;;;;;;10407924;28;20374;-56
2021/06/13 06:16:09;;;;;;;12.88;5.43;;;22.40;57.50;;;;;;10413189;28;20044;-56
2021/06/13 06:21:10;;;;;;;14.23;4.65;;;22.30;57.40;;;;;;10402486;28;20044;-56
2021/06/13 06:26:11;;;;;;;8.48;3.88;;;22.30;56.90;;;;;;10409723;28;20120;-57
2021/06/13 06:31:12;;;;;;;11.80;5.13;;;22.30;57.10;;;;;;10410867;28;20076;-55
2021/06/13 06:36:13;;;;;;;7.72;4.38;;;22.30;56.90;;;;;;10414142;28;20033;-56
2021/06/13 06:41:14;;;;;;;10.60;4.90;;;22.30;57.00;;;;;;10419899;28;20111;-56
2021/06/13 06:46:14;;;;;;;10.05;5.13;;;22.30;56.90;;;;;;10419309;28;20042;-56
2021/06/13 06:51:15;;;;;;;8.20;4.40;;;22.30;56.70;;;;;;10416022;28;20120;-56
2021/06/13 06:56:16;;;;;;;7.00;4.00;;;22.30;56.30;;;;;;10416179;28;20033;-56
2021/06/13 07:01:16;;;;;;;8.35;5.35;;;22.30;56.10;;;;;;10415509;28;20035;-56
2021/06/13 07:06:17;;;;;;;9.10;4.72;;;22.30;56.00;;;;;;10414377;28;20108;-56
2021/06/13 07:11:18;;;;;;;9.02;4.10;;;22.30;55.90;;;;;;10414190;28;20116;-56
2021/06/13 07:16:19;;;;;;;6.20;3.60;;;22.30;55.90;;;;;;10415321;28;20413;-56
2021/06/13 07:21:19;;;;;;;8.18;4.00;;;22.30;55.80;;;;;;10415010;28;20474;-56
2021/06/13 07:26:20;;;;;;;6.97;4.75;;;22.30;55.70;;;;;;10415121;28;20530;-56
2021/06/13 07:31:21;;;;;;;7.97;3.85;;;22.30;55.60;;;;;;10414549;28;20477;-56
2021/06/13 07:36:21;;;;;;;6.90;4.50;;;22.30;55.80;;;;;;10413758;28;20445;-57
2021/06/13 07:41:22;;;;;;;6.80;3.75;;;22.40;55.50;;;;;;10419169;28;20041;-56
2021/06/13 07:46:23;;;;;;;9.30;4.78;;;22.30;55.50;;;;;;10417548;28;20053;-57
2021/06/13 07:51:24;;;;;;;15.80;4.63;;;22.30;55.80;;;;;;10413619;28;20046;-56
2021/06/13 07:56:24;;;;;;;11.95;4.25;;;22.40;55.60;;;;;;10422609;28;20029;-56
2021/06/13 08:01:25;;;;;;;13.13;4.75;;;22.40;55.60;;;;;;10409516;28;20120;-55
2021/06/13 08:06:26;;;;;;;8.23;4.38;;;22.40;55.60;;;;;;10413331;28;20652;-56
2021/06/13 08:11:29;;;;;;;9.32;4.10;;;22.40;55.90;;;;;;10411744;28;20045;-56
2021/06/13 08:16:30;;;;;;;10.35;4.95;;;22.40;55.90;;;;;;10413509;28;20021;-55
2021/06/13 08:21:33;;;;;;;9.45;4.68;;;22.40;56.30;;;;;;10412670;28;20029;-55
2021/06/13 08:26:35;;;;;;;12.38;4.90;;;22.50;56.60;;;;;;10410317;28;20402;-55
2021/06/13 08:31:35;;;;;;;11.02;4.57;;;22.50;56.60;;;;;;10409669;28;20030;-56
2021/06/13 08:36:36;;;;;;;9.75;3.80;;;22.50;56.50;;;;;;10412381;28;20093;-56
2021/06/13 08:41:37;;;;;;;7.68;4.18;;;22.50;56.90;;;;;;10413335;28;20108;-57
2021/06/13 08:46:39;;;;;;;7.60;3.95;;;22.50;56.40;;;;;;10412623;28;20061;-56
2021/06/13 08:51:40;;;;;;;8.38;4.75;;;22.50;56.60;;;;;;10407583;28;20036;-55
2021/06/13 08:56:42;;;;;;;10.70;3.72;;;22.50;56.70;;;;;;10413272;28;20045;-57
2021/06/13 09:01:43;;;;;;;7.43;3.88;;;22.50;57.00;;;;;;10417015;28;20071;-55
2021/06/13 09:06:44;;;;;;;7.05;3.63;;;22.50;56.20;;;;;;10420194;28;20049;-55
2021/06/13 09:12:01;;;;;;;12.40;4.57;;;22.50;56.60;;;;;;10419757;28;20775;-54
2021/06/13 09:17:13;;;;;;;8.27;4.15;;;22.50;56.60;;;;;;10419982;28;20022;-56
2021/06/13 09:22:14;;;;;;;7.80;5.10;;;22.60;57.00;;;;;;10418037;28;20120;-56
2021/06/13 09:27:14;;;;;;;11.45;4.63;;;22.60;56.90;;;;;;10433922;28;20553;-55
2021/06/13 09:32:15;;;;;;;10.98;4.22;;;22.50;56.90;;;;;;10418883;28;20505;-57
2021/06/13 09:37:16;;;;;;;8.80;4.30;;;22.60;56.50;;;;;;10417273;28;20117;-55
2021/06/13 09:42:17;;;;;;;8.45;3.83;;;22.60;56.60;;;;;;10422103;28;20434;-55
2021/06/13 09:47:28;;;;;;;7.75;4.57;;;22.60;55.70;;;;;;10416963;28;20128;-56
2021/06/13 09:52:29;;;;;;;9.60;4.53;;;22.60;55.80;;;;;;10416883;28;20033;-56
2021/06/13 09:57:29;;;;;;;6.57;4.38;;;22.50;55.60;;;;;;10417752;28;20406;-55
2021/06/13 10:02:30;;;;;;;6.60;4.13;;;22.50;56.00;;;;;;10418072;28;20086;-55
2021/06/13 10:07:33;;;;;;;7.47;3.67;;;22.50;55.70;;;;;;10418089;28;20061;-56
2021/06/13 10:12:51;;;;;;;6.60;3.90;;;22.50;55.90;;;;;;10404200;28;20036;-55
2021/06/13 10:18:10;;;;;;;6.67;3.50;;;22.50;55.70;;;;;;10405172;28;20037;-56
2021/06/13 10:23:11;;;;;;;7.07;4.53;;;22.50;55.90;;;;;;10417645;28;20091;-56
2021/06/13 10:28:11;;;;;;;7.80;3.45;;;22.50;55.60;;;;;;10415886;28;20359;-55
2021/06/13 10:33:13;;;;;;;7.78;3.50;;;22.50;55.90;;;;;;10416911;28;20038;-56
2021/06/13 10:38:14;;;;;;;6.82;3.65;;;22.50;55.90;;;;;;10415719;28;20030;-56
2021/06/13 10:43:29;;;;;;;6.15;4.00;;;22.50;56.10;;;;;;10420925;28;20555;-55
2021/06/13 10:48:45;;;;;;;5.40;3.60;;;22.50;55.40;;;;;;10415487;28;20429;-55
2021/06/13 10:53:45;;;;;;;5.40;3.53;;;22.50;55.60;;;;;;10416360;28;20040;-55
2021/06/13 10:58:53;;;;;;;5.55;3.70;;;22.50;55.70;;;;;;10427119;28;20029;-56
2021/06/13 11:04:01;;;;;;;8.00;4.13;;;22.50;55.90;;;;;;10415507;28;20500;-56
2021/06/13 11:09:05;;;;;;;6.28;3.97;;;22.50;55.40;;;;;;10415667;28;20041;-56
2021/06/13 11:14:35;;;;;;;6.80;3.55;;;22.50;55.90;;;;;;10414155;28;20501;-55
2021/06/13 11:19:36;;;;;;;5.20;3.30;;;22.50;56.00;;;;;;10410375;28;20045;-55
2021/06/13 11:24:58;;;;;;;5.63;3.53;;;22.50;55.90;;;;;;10414374;28;20037;-55
2021/06/13 11:29:59;;;;;;;6.88;4.28;;;22.50;55.80;;;;;;10397566;28;20026;-55
2021/06/13 11:35:00;;;;;;;8.07;3.45;;;22.40;55.80;;;;;;10414567;28;20013;-56
2021/06/13 11:40:01;;;;;;;6.07;3.22;;;22.50;55.40;;;;;;10414740;28;20074;-56
2021/06/13 11:45:02;;;;;;;5.03;3.22;;;22.50;55.80;;;;;;10423415;28;20484;-56
2021/06/13 11:50:06;;;;;;;8.05;3.65;;;22.40;55.90;;;;;;10414241;28;20061;-56
2021/06/13 11:55:07;;;;;;;6.75;3.35;;;22.40;55.90;;;;;;10414451;28;20033;-55
2021/06/13 12:00:16;;;;;;;4.20;2.95;;;22.40;55.70;;;;;;10414280;28;20421;-56
2021/06/13 12:05:17;;;;;;;6.28;3.05;;;22.40;55.80;;;;;;10399533;28;20036;-55
2021/06/13 12:10:28;;;;;;;5.72;3.40;;;22.40;55.90;;;;;;10413986;28;20117;-56
2021/06/13 12:15:29;;;;;;;4.93;3.03;;;22.40;56.00;;;;;;10413503;28;20136;-56
2021/06/13 12:20:30;;;;;;;4.55;3.30;;;22.40;55.60;;;;;;10413767;28;20501;-55
2021/06/13 12:30:51;;;;;;;5.10;2.95;;;22.40;55.70;;;;;;10413538;28;20045;-56
2021/06/13 12:35:55;;;;;;;6.25;3.55;;;22.40;56.00;;;;;;10409934;28;20029;-56
2021/06/13 12:40:58;;;;;;;4.28;3.63;;;22.40;56.00;;;;;;10422625;28;20045;-55
2021/06/13 12:45:59;;;;;;;4.45;3.53;;;22.40;55.80;;;;;;10427763;28;20060;-56
2021/06/13 12:51:00;;;;;;;4.30;3.03;;;22.40;55.80;;;;;;10421366;28;20481;-55
2021/06/13 12:56:03;;;;;;;4.90;3.00;;;22.40;56.00;;;;;;10420790;28;20105;-56
2021/06/13 13:01:04;;;;;;;5.72;3.35;;;22.40;55.80;;;;;;10419562;28;20520;-56
2021/06/13 13:06:07;;;;;;;4.93;3.80;;;22.40;55.90;;;;;;10419176;28;20033;-56
2021/06/13 13:11:29;;;;;;;5.75;2.88;;;22.40;55.70;;;;;;10419169;28;20034;-55
2021/06/13 13:16:34;;;;;;;4.63;2.85;;;22.40;55.10;;;;;;10419796;28;20040;-56
2021/06/13 13:21:40;;;;;;;4.32;2.55;;;22.40;55.40;;;;;;10420137;28;20473;-56
2021/06/13 13:27:04;;;;;;;4.72;3.25;;;22.40;55.10;;;;;;10419306;28;20056;-56
2021/06/13 13:32:05;;;;;;;6.10;3.45;;;22.40;55.40;;;;;;10418101;28;20029;-56
2021/06/13 13:37:14;;;;;;;4.72;3.08;;;22.40;54.90;;;;;;10419087;28;20037;-55
2021/06/13 13:42:21;;;;;;;5.20;3.03;;;22.40;55.30;;;;;;10428872;28;20029;-55
2021/06/13 13:47:22;;;;;;;4.38;3.28;;;22.40;55.40;;;;;;10417990;28;20084;-56
2021/06/13 13:52:23;;;;;;;5.45;2.88;;;22.40;55.10;;;;;;10418424;28;20467;-56
2021/06/13 13:57:47;;;;;;;5.40;3.35;;;22.40;55.50;;;;;;10418271;28;20030;-55
2021/06/13 14:02:47;;;;;;;4.15;3.20;;;22.40;54.70;;;;;;10418189;28;20029;-55
2021/06/13 14:07:48;;;;;;;6.07;3.50;;;22.40;55.00;;;;;;10417909;28;20109;-55
2021/06/13 14:12:49;;;;;;;4.47;3.25;;;22.40;55.20;;;;;;10417713;28;20065;-55
2021/06/13 14:17:49;;;;;;;4.90;2.92;;;22.40;55.50;;;;;;10417300;28;20053;-56
2021/06/13 14:22:50;;;;;;;4.55;2.83;;;22.40;55.50;;;;;;10417626;28;20163;-55
2021/06/13 14:27:52;;;;;;;4.88;2.85;;;22.40;55.10;;;;;;10432637;28;20025;-56
2021/06/13 14:32:53;;;;;;;4.57;3.22;;;22.40;55.40;;;;;;10417008;28;20657;-55
2021/06/13 14:37:53;;;;;;;3.90;3.00;;;22.40;55.80;;;;;;10415541;28;20037;-55
2021/06/13 14:42:54;;;;;;;4.82;2.53;;;22.40;55.40;;;;;;10425853;28;20100;-56
2021/06/13 14:47:55;;;;;;;4.95;2.80;;;22.40;55.50;;;;;;10416137;28;20048;-56
2021/06/13 14:52:56;;;;;;;3.42;2.45;;;22.40;55.60;;;;;;10409939;28;20397;-56
2021/06/13 14:57:56;;;;;;;4.38;2.97;;;22.40;55.80;;;;;;10415219;28;20042;-56
2021/06/13 15:02:57;;;;;;;9.13;3.03;;;22.40;55.10;;;;;;10415843;28;20079;-56
2021/06/13 15:07:59;;;;;;;4.57;3.20;;;22.40;55.20;;;;;;10415327;28;20763;-56
2021/06/13 15:12:59;;;;;;;3.72;2.65;;;22.40;54.90;;;;;;10402504;28;20034;-56
2021/06/13 15:18:00;;;;;;;4.82;2.80;;;22.40;54.70;;;;;;10415350;28;20391;-56
2021/06/13 15:23:01;;;;;;;4.63;2.85;;;22.40;55.10;;;;;;10415639;28;20061;-55
2021/06/13 15:28:01;;;;;;;5.13;3.13;;;22.40;55.40;;;;;;10413580;28;20033;-55
2021/06/13 15:33:03;;;;;;;4.45;2.85;;;22.40;55.00;;;;;;10415036;28;20382;-56
2021/06/13 15:38:04;;;;;;;5.82;3.17;;;22.40;55.20;;;;;;10414667;28;20044;-55
2021/06/13 15:43:07;;;;;;;3.53;2.55;;;22.40;54.90;;;;;;10423804;28;20414;-56
2021/06/13 15:48:09;;;;;;;4.05;2.85;;;22.40;55.40;;;;;;10414003;28;20061;-56
2021/06/13 15:53:09;;;;;;;3.97;2.78;;;22.50;55.00;;;;;;10413072;28;20026;-56
2021/06/13 15:58:15;;;;;;;4.50;3.03;;;22.50;55.60;;;;;;10413462;28;20049;-55
2021/06/13 16:03:15;;;;;;;4.10;2.90;;;22.50;54.80;;;;;;10414149;28;20541;-56
2021/06/13 16:08:16;;;;;;;3.70;2.60;;;22.40;55.50;;;;;;10416167;28;20120;-56
2021/06/13 16:13:18;;;;;;;3.90;2.60;;;22.50;55.60;;;;;;10409147;28;20071;-55
2021/06/13 16:18:19;;;;;;;4.78;2.35;;;22.50;55.70;;;;;;10422475;28;20033;-56
2021/06/13 16:23:19;;;;;;;4.13;2.60;;;22.50;55.60;;;;;;10422267;28;20475;-55
2021/06/13 16:28:21;;;;;;;3.72;2.40;;;22.50;55.30;;;;;;10421870;28;20044;-55
2021/06/13 16:33:22;;;;;;;4.13;2.70;;;22.50;54.80;;;;;;10420222;28;20033;-55
2021/06/13 16:38:23;;;;;;;4.03;2.60;;;22.50;54.70;;;;;;10420557;28;20057;-55
2021/06/13 16:43:24;;;;;;;3.92;2.50;;;22.50;54.70;;;;;;10430563;28;20029;-55
2021/06/13 16:48:25;;;;;;;3.67;2.55;;;22.50;55.40;;;;;;10421005;28;20030;-56
2021/06/13 16:53:25;;;;;;;3.95;2.83;;;22.50;54.90;;;;;;10421048;28;20030;-55
2021/06/13 16:58:27;;;;;;;3.35;2.20;;;22.50;55.00;;;;;;10420571;28;20029;-56
2021/06/13 17:03:27;;;;;;;2.95;2.25;;;22.50;55.00;;;;;;10419630;28;20037;-55
2021/06/13 17:08:28;;;;;;;3.80;2.40;;;22.50;55.10;;;;;;10420160;28;20452;-56
2021/06/13 17:13:29;;;;;;;4.40;2.60;;;22.60;55.20;;;;;;10406998;28;20068;-55
2021/06/13 17:18:29;;;;;;;3.72;2.60;;;22.60;55.30;;;;;;10419805;28;20121;-56
2021/06/13 17:23:33;;;;;;;3.38;2.45;;;22.50;55.30;;;;;;10419087;28;20037;-55
2021/06/13 17:28:35;;;;;;;3.20;2.30;;;22.60;55.30;;;;;;10418338;28;20044;-55
2021/06/13 17:33:35;;;;;;;3.28;2.40;;;22.60;55.40;;;;;;10419859;28;20021;-56
2021/06/13 17:38:36;;;;;;;3.42;2.33;;;22.60;55.50;;;;;;10417980;28;20025;-55
2021/06/13 17:43:38;;;;;;;4.25;2.50;;;22.60;55.50;;;;;;10427859;28;20120;-55
2021/06/13 17:48:39;;;;;;;3.80;2.60;;;22.60;55.50;;;;;;10419175;28;20422;-55
2021/06/13 17:53:40;;;;;;;3.17;2.65;;;22.60;55.70;;;;;;10418529;28;20142;-55
2021/06/13 17:58:42;;;;;;;4.00;2.70;;;22.60;55.70;;;;;;10418728;28;20034;-55
2021/06/13 18:03:42;;;;;;;4.18;2.85;;;22.60;55.70;;;;;;10418027;28;20033;-54
2021/06/13 18:08:43;;;;;;;4.25;2.58;;;22.60;55.80;;;;;;10418320;28;20061;-56
2021/06/13 18:13:44;;;;;;;3.95;2.67;;;22.60;55.80;;;;;;10403432;28;20053;-55
2021/06/13 18:18:45;;;;;;;4.50;2.75;;;22.60;55.70;;;;;;10417415;28;20037;-56
2021/06/13 18:23:46;;;;;;;2.97;2.33;;;22.60;55.70;;;;;;10417689;28;20482;-55
2021/06/13 18:28:48;;;;;;;5.07;2.72;;;22.60;55.80;;;;;;10417384;28;20022;-56
2021/06/13 18:33:49;;;;;;;3.45;2.20;;;22.60;55.70;;;;;;10416634;28;20044;-55
2021/06/13 18:38:50;;;;;;;4.65;2.65;;;22.60;55.60;;;;;;10415454;28;20033;-55
2021/06/13 18:43:50;;;;;;;4.05;2.00;;;22.60;55.60;;;;;;10422702;28;20053;-56
2021/06/13 18:48:51;;;;;;;3.85;2.60;;;22.60;55.60;;;;;;10416545;28;20116;-56
2021/06/13 18:53:52;;;;;;;3.47;2.08;;;22.60;55.60;;;;;;10416173;28;20475;-55
2021/06/13 18:58:54;;;;;;;2.88;2.13;;;22.60;55.60;;;;;;10416094;28;20160;-55
2021/06/13 19:03:55;;;;;;;3.17;2.17;;;22.60;55.50;;;;;;10416193;28;20385;-55
2021/06/13 19:08:56;;;;;;;3.25;2.45;;;22.60;55.50;;;;;;10415901;28;20029;-56
2021/06/13 19:13:56;;;;;;;4.70;2.50;;;22.60;55.60;;;;;;10415464;28;20041;-56
2021/06/13 19:18:57;;;;;;;4.75;2.53;;;22.60;55.60;;;;;;10416472;28;20136;-55
2021/06/13 19:23:58;;;;;;;4.05;2.97;;;22.60;55.70;;;;;;10415064;28;20419;-56
2021/06/13 19:28:59;;;;;;;3.75;2.67;;;22.60;55.80;;;;;;10415076;28;20040;-56
2021/06/13 19:34:00;;;;;;;4.35;2.50;;;22.60;55.70;;;;;;10414886;28;20057;-55
2021/06/13 19:39:00;;;;;;;4.35;2.28;;;22.60;55.60;;;;;;10421485;28;20120;-55
2021/06/13 19:44:03;;;;;;;3.92;3.15;;;22.60;55.60;;;;;;10418722;28;20061;-56
2021/06/13 19:49:04;;;;;;;4.60;2.92;;;22.60;55.60;;;;;;10414486;28;20049;-56
2021/06/13 19:54:05;;;;;;;3.90;2.65;;;22.60;55.60;;;;;;10414329;28;20068;-55
2021/06/13 19:59:06;;;;;;;2.97;2.08;;;22.60;55.50;;;;;;10421994;28;20079;-55
2021/06/13 20:04:07;;;;;;;3.97;2.53;;;22.60;55.60;;;;;;10412831;28;20029;-55
2021/06/13 20:09:08;;;;;;;3.70;2.50;;;22.70;55.70;;;;;;10414105;28;20040;-56
2021/06/13 20:14:09;;;;;;;5.30;3.00;;;22.60;55.60;;;;;;10414002;28;20036;-56
2021/06/13 20:19:09;;;;;;;4.28;2.83;;;22.70;55.80;;;;;;10413910;28;20551;-56
2021/06/13 20:24:11;;;;;;;3.88;2.67;;;22.60;55.70;;;;;;10413775;28;20466;-56
2021/06/13 20:29:11;;;;;;;4.28;2.67;;;22.70;55.70;;;;;;10413958;28;20029;-56
2021/06/13 20:34:12;;;;;;;3.15;2.13;;;22.60;55.70;;;;;;10413588;28;20366;-55
2021/06/13 20:39:14;;;;;;;3.97;2.67;;;22.60;55.70;;;;;;10412700;28;20037;-51
2021/06/13 20:44:16;;;;;;;4.75;2.58;;;22.70;55.80;;;;;;10415228;28;20393;-56
2021/06/13 20:49:16;;;;;;;4.35;2.53;;;22.60;56.40;;;;;;10412487;28;20099;-54
2021/06/13 20:54:17;;;;;;;6.93;2.78;;;22.70;55.80;;;;;;10413254;28;20025;-54
2021/06/13 20:59:18;;;;;;;3.78;2.67;;;22.60;55.90;;;;;;10418449;28;20094;-55
2021/06/13 21:04:19;;;;;;;6.72;2.75;;;22.60;55.80;;;;;;10418683;28;20099;-55
2021/06/13 21:09:21;;;;;;;3.92;2.75;;;22.60;55.80;;;;;;10417742;28;20116;-55
2021/06/13 21:14:22;;;;;;;4.00;2.67;;;22.60;55.80;;;;;;10419725;28;20061;-55
2021/06/13 21:19:23;;;;;;;4.28;2.60;;;22.60;55.80;;;;;;10417810;28;20544;-55
2021/06/13 21:24:24;;;;;;;3.97;2.45;;;22.60;55.90;;;;;;10416292;28;20116;-54
2021/06/13 21:29:25;;;;;;;4.25;2.75;;;22.60;55.90;;;;;;10417622;28;20616;-55
2021/06/13 21:34:26;;;;;;;3.83;2.63;;;22.70;56.00;;;;;;10418995;28;20485;-55
2021/06/13 21:39:26;;;;;;;3.78;2.28;;;22.60;56.00;;;;;;10419581;28;20124;-55
2021/06/13 21:44:28;;;;;;;4.35;2.33;;;22.60;56.00;;;;;;10428102;28;20120;-56
2021/06/13 21:49:28;;;;;;;4.28;2.53;;;22.60;56.10;;;;;;10417797;28;20041;-55
2021/06/13 21:54:30;;;;;;;2.55;1.85;;;22.60;56.00;;;;;;10418667;28;20048;-55
2021/06/13 21:59:32;;;;;;;6.05;3.33;;;22.60;56.10;;;;;;10418842;28;20064;-55
2021/06/13 22:04:33;;;;;;;4.15;2.60;;;22.60;56.00;;;;;;10418380;28;20040;-54
2021/06/13 22:09:34;;;;;;;4.07;2.63;;;22.60;56.00;;;;;;10417276;28;20037;-54
2021/06/13 22:14:35;;;;;;;3.53;2.25;;;22.60;56.10;;;;;;10418019;28;20430;-53
2021/06/13 22:19:35;;;;;;;3.40;2.60;;;22.60;56.00;;;;;;10417704;28;20068;-55
2021/06/13 22:24:36;;;;;;;6.05;2.42;;;22.60;56.00;;;;;;10417458;28;20072;-54
2021/06/13 22:29:37;;;;;;;5.28;3.00;;;22.60;56.00;;;;;;10417268;28;20042;-55
2021/06/13 22:34:37;;;;;;;3.50;2.60;;;22.60;56.00;;;;;;10416954;28;20037;-54
2021/06/13 22:39:38;;;;;;;3.80;2.70;;;22.60;55.90;;;;;;10417358;28;20030;-55
2021/06/13 22:44:39;;;;;;;5.28;2.42;;;22.60;55.90;;;;;;10426341;28;20071;-54
2021/06/13 22:49:40;;;;;;;6.72;2.65;;;22.60;55.90;;;;;;10416411;28;20025;-54
2021/06/13 22:54:41;;;;;;;4.90;2.92;;;22.60;56.50;;;;;;10416554;28;20033;-55
2021/06/13 22:59:41;;;;;;;5.70;2.90;;;22.60;55.80;;;;;;10416036;28;20075;-54
2021/06/13 23:04:42;;;;;;;4.03;2.85;;;22.60;55.70;;;;;;10416168;28;20152;-55
2021/06/13 23:09:43;;;;;;;4.93;2.88;;;22.60;55.70;;;;;;10415828;28;20029;-54
2021/06/13 23:14:44;;;;;;;5.35;3.20;;;22.60;55.70;;;;;;10415647;28;20033;-54
2021/06/13 23:19:44;;;;;;;5.80;3.33;;;22.60;55.60;;;;;;10414683;28;20060;-55
2021/06/13 23:24:45;;;;;;;4.35;3.03;;;22.60;55.50;;;;;;10414430;28;20048;-55
2021/06/13 23:29:46;;;;;;;4.10;2.97;;;22.60;55.50;;;;;;10414874;28;20040;-54
2021/06/13 23:34:46;;;;;;;3.83;3.05;;;22.50;55.40;;;;;;10413633;28;20493;-54
2021/06/13 23:39:47;;;;;;;4.82;2.78;;;22.60;55.40;;;;;;10414789;28;20424;-53
2021/06/13 23:44:48;;;;;;;5.93;2.95;;;22.50;55.30;;;;;;10423330;28;20095;-55
2021/06/13 23:49:48;;;;;;;5.10;3.20;;;22.50;55.30;;;;;;10414311;28;20120;-55
2021/06/13 23:54:49;;;;;;;4.70;2.60;;;22.50;55.30;;;;;;10414053;28;20104;-54
2021/06/13 23:59:50;;;;;;;4.50;3.63;;;22.50;55.30;;;;;;10414116;28;20033;-54
